KFRG/FRG METAR and TAF weather

Enter ICAO airport designator
Station Type Date Time Source
KFRG METAR 2022/12/02 22:53 UTC NOAA

KFRG 022253Z AUTO 19004KT 10SM CLR 03/M03 A3049 RMK AO2 SLP326 T00331028


Station Type Date Time Source
KFRG Decoded METAR 2022/12/02 22:53 UTC NOAA

FARMINGDALE REPUBLIC AIRPORT , NY, United States (KFRG) 40-44N 073-25W 21M
Dec 02, 2022 - 05:53 PM EST / 2022.12.02 2253 UTC
Wind: from the S (190 degrees) at 5 MPH (4 KT):0
Visibility: 10 mile(s):0
Sky conditions: clear
Temperature: 37.9 F (3.3 C)
Dew Point: 27.0 F (-2.8 C)
Relative Humidity: 64%
Pressure (altimeter): 30.49 in. Hg (1032 hPa)
ob: KFRG 022253Z AUTO 19004KT 10SM CLR 03/M03 A3049 RMK AO2 SLP326 T00331028
cycle: 23

Station Type Date Time Source
KFRG TAF UTC NOAA

Error!

Example: see airport list